Latest Weather Observations for Moomba Airport

IDS60801

Issued at 12:05 pm CDT Thursday 23 October 2014 (issued every 30 minutes, with the page automatically refreshed every 10 minutes)

About weather observations | Map of weather stations | Latest weather observations for SA | Other Formats
Station Details ID: 017123 Name: MOOMBA AIRPORT Lat: -28.10 Lon: 140.20 Height: 37.8 m
Data from the previous 72 hours. | See also: Recent months at Moomba Airport
Date/Time
CDT
Temp
°C
App
Temp
°C
Dew
Point
Rel
Hum
%
Delta-T
°C
Wind Press
QNH
hPa
Press
MSL
hPa
Rain
since 9 am
mm
Dir
 
Spd
km/h
Gust
km/h
Spd
kts
Gust
kts
23/12:00pm 37.7 30.4 2.2 11 18.5 NW 30 43 16 23 1015.4 1015.3 0.0
23/11:30am 37.0 29.6 1.7 11 18.1 NW 30 41 16 22 1015.8 1015.7 0.0
23/11:00am 36.4 28.7 2.4 12 17.6 NNW 32 43 17 23 1016.2 1016.1 0.0
23/10:30am 35.3 27.9 3.8 14 16.6 NNW 32 43 17 23 1016.4 1016.3 0.0
23/10:00am 33.3 26.6 5.8 18 14.8 N 30 39 16 21 1016.6 1016.5 0.0
23/09:30am 32.2 25.7 6.4 20 13.9 N 30 37 16 20 1016.7 1016.6 0.0
23/09:00am 31.1 26.0 7.5 23 12.9 N 24 30 13 16 1016.7 1016.6 0.0
23/08:30am 29.2 25.1 7.7 26 11.7 N 19 24 10 13 1016.6 1016.5 0.0
23/08:00am 26.8 22.3 8.7 32 9.9 N 22 26 12 14 1016.3 1016.2 0.0
23/07:30am 24.0 20.3 8.0 36 8.5 N 17 26 9 14 1016.2 1016.1 0.0
23/07:00am 23.0 19.2 7.5 37 8.1 N 17 19 9 10 1016.0 1015.9 0.0
23/06:30am 23.0 18.8 7.5 37 8.1 N 19 22 10 12 1015.7 1015.6 0.0
23/06:00am 22.7 18.8 7.3 37 8.0 N 17 19 9 10 1015.3 1015.2 0.0
23/05:30am 23.6 19.5 7.7 36 8.4 N 19 22 10 12 1015.0 1014.9 0.0
23/05:00am 24.3 20.2 7.9 35 8.7 N 19 22 10 12 1014.8 1014.7 0.0
23/04:30am 24.4 20.7 8.0 35 8.7 N 17 20 9 11 1014.8 1014.7 0.0
23/04:00am 25.1 21.1 8.1 34 9.1 N 19 20 10 11 1014.9 1014.8 0.0
23/03:30am 25.6 21.4 8.1 33 9.4 N 20 24 11 13 1015.0 1014.9 0.0
23/03:00am 26.0 21.9 8.5 33 9.5 N 20 24 11 13 1015.2 1015.1 0.0
23/02:30am 26.7 21.8 8.6 32 9.8 NNE 24 28 13 15 1015.6 1015.5 0.0
23/02:00am 27.7 21.7 8.6 30 10.4 NE 30 37 16 20 1015.7 1015.6 0.0
23/01:30am 28.4 22.0 8.7 29 10.8 NNE 32 41 17 22 1016.0 1015.9 0.0
23/01:00am 29.2 22.5 8.3 27 11.5 NNE 33 41 18 22 1016.4 1016.3 0.0
23/12:30am 29.4 23.0 8.5 27 11.5 NNE 32 43 17 23 1016.7 1016.6 0.0
23/12:00am 29.7 23.6 8.2 26 11.8 NNE 30 39 16 21 1016.6 1016.5 0.0
 
Date/Time
CDT
Temp
°C
App
Temp
°C
Dew
Point
Rel
Hum
%
Delta-T
°C
Wind Press
QNH
hPa
Press
MSL
hPa
Rain
since 9 am
mm
Dir
 
Spd
km/h
Gust
km/h
Spd
kts
Gust
kts
22/11:30pm 30.4 23.7 8.2 25 12.2 NE 33 43 18 23 1017.3 1017.2 0.0
22/11:17pm 30.7 24.7 7.2 23 12.7 ENE 28 35 15 19 1017.2 1017.1 0.0
22/11:00pm 30.7 27.7 2.0 16 14.3 WNW 7 11 4 6 1016.8 1016.7 0.0
22/10:30pm 31.3 26.9 2.5 16 14.5 W 15 19 8 10 1016.7 1016.6 0.0
22/10:00pm 32.5 28.4 2.5 15 15.2 NW 13 15 7 8 1016.4 1016.3 0.0
22/09:30pm 33.4 28.8 1.3 13 16.0 N 15 20 8 11 1016.2 1016.1 0.0
22/09:00pm 33.3 29.2 2.2 14 15.8 N 13 15 7 8 1016.1 1016.0 0.0
22/08:30pm 34.6 28.8 2.2 13 16.5 NE 22 28 12 15 1015.7 1015.6 0.0
22/08:00pm 33.8 26.5 4.5 16 15.5 ESE 32 65 17 35 1015.6 1015.5 0.0
22/07:53pm 33.8 27.2 6.2 18 15.0 ESE 30 52 16 28 1015.5 1015.4 0.0
22/07:50pm 34.8 28.1 3.4 14 16.4 ESE 28 43 15 23 1015.6 1015.5 0.0
22/07:30pm 36.1 33.9 1.0 11 17.7 SW 2 9 1 5 1015.0 1014.9 0.0
22/07:00pm 36.8 32.4 0.2 10 18.4 NNW 13 22 7 12 1014.4 1014.3 0.0
22/06:30pm 37.3 32.0 -0.9 9 18.9 NW 17 22 9 12 1014.2 1014.1 0.0
22/06:00pm 38.0 33.1 -0.3 9 19.2 NW 15 26 8 14 1014.1 1014.0 0.0
22/05:30pm 38.8 33.6 0.3 9 19.6 NNW 17 22 9 12 1014.1 1014.0 0.0
22/05:00pm 38.4 33.6 0.0 9 19.4 NW 15 28 8 15 1014.2 1014.1 0.0
22/04:30pm 38.3 34.2 -0.1 9 19.3 NW 11 20 6 11 1014.3 1014.2 0.0
22/04:00pm 38.8 33.6 0.3 9 19.6 NW 17 30 9 16 1014.6 1014.5 0.0
22/03:30pm 39.3 35.3 0.6 9 19.8 WNW 11 24 6 13 1014.9 1014.8 0.0
22/03:00pm 39.1 34.7 0.5 9 19.7 NNW 13 20 7 11 1015.3 1015.2 0.0
22/02:30pm 38.3 34.2 -0.1 9 19.3 NNW 11 22 6 12 1015.8 1015.7 0.0
22/02:00pm 37.7 31.5 -0.6 9 19.1 WNW 22 30 12 16 1016.3 1016.2 0.0
22/01:30pm 37.4 33.4 0.7 10 18.6 WNW 11 22 6 12 1016.6 1016.5 0.0
22/01:00pm 37.9 31.9 1.0 10 18.9 NNW 22 33 12 18 1017.0 1016.9 0.0
22/12:30pm 38.4 31.9 2.8 11 18.7 NNW 26 37 14 20 1017.4 1017.3 0.0
22/12:00pm 36.8 29.2 2.8 12 17.7 NNW 32 43 17 23 1017.8 1017.7 0.0
22/11:30am 36.9 29.5 4.0 13 17.5 NNW 32 43 17 23 1018.1 1018.0 0.0
22/11:00am 34.7 26.6 3.3 14 16.3 NNW 35 46 19 25 1018.4 1018.3 0.0
22/10:30am 34.4 26.8 4.0 15 15.9 NNW 33 43 18 23 1018.5 1018.4 0.0
22/10:00am 33.1 25.5 3.9 16 15.2 N 33 44 18 24 1018.6 1018.5 0.0
22/09:30am 32.3 24.8 4.2 17 14.6 NNW 33 44 18 24 1018.6 1018.5 0.0
22/09:00am 32.5 25.4 3.5 16 14.9 NNW 30 37 16 20 1018.4 1018.3 0.0
22/08:30am 29.9 24.2 3.0 18 13.5 NNW 22 28 12 15 1017.8 1017.7 0.0
22/08:00am 27.9 22.8 2.9 20 12.4 NW 19 22 10 12 1017.4 1017.3 0.0
22/07:30am 25.5 21.0 2.2 22 11.2 NNW 15 19 8 10 1017.1 1017.0 0.0
22/07:00am 23.1 19.7 2.0 25 9.9 NNW 9 11 5 6 1016.8 1016.7 0.0
22/06:30am 22.6 19.2 1.6 25 9.8 WNW 9 11 5 6 1016.6 1016.5 0.0
22/06:00am 24.3 19.4 1.9 23 10.6 NNW 17 19 9 10 1016.2 1016.1 0.0
22/05:30am 25.5 20.1 2.2 22 11.2 NNW 20 24 11 13 1015.9 1015.8 0.0
22/05:00am 22.9 18.3 1.3 24 10.0 N 15 19 8 10 1015.7 1015.6 0.0
22/04:30am 24.0 19.4 1.6 23 10.5 N 15 19 8 10 1015.6 1015.5 0.0
22/04:00am 25.5 20.6 2.2 22 11.2 N 17 20 9 11 1015.7 1015.6 0.0
22/03:30am 25.7 20.4 1.8 21 11.4 N 19 22 10 12 1015.7 1015.6 0.0
22/03:00am 22.9 18.3 -1.2 20 10.7 N 13 17 7 9 1015.9 1015.8 0.0
22/02:30am 25.3 19.9 1.4 21 11.3 N 19 20 10 11 1016.1 1016.0 0.0
22/02:00am 25.6 20.7 1.7 21 11.4 N 17 19 9 10 1016.3 1016.2 0.0
22/01:30am 25.3 20.2 0.7 20 11.5 N 17 19 9 10 1016.8 1016.7 0.0
22/01:00am 25.5 20.8 0.9 20 11.6 N 15 17 8 9 1017.1 1017.0 0.0
22/12:30am 25.6 21.6 0.3 19 11.8 N 11 13 6 7 1017.4 1017.3 0.0
22/12:00am 26.0 21.5 -0.1 18 12.1 NNE 13 15 7 8 1017.7 1017.6 0.0
 
Date/Time
CDT
Temp
°C
App
Temp
°C
Dew
Point
Rel
Hum
%
Delta-T
°C
Wind Press
QNH
hPa
Press
MSL
hPa
Rain
since 9 am
mm
Dir
 
Spd
km/h
Gust
km/h
Spd
kts
Gust
kts
21/11:30pm 27.3 22.2 0.9 18 12.6 NNE 17 17 9 9 1017.9 1017.8 0.0
21/11:00pm 27.1 22.3 0.0 17 12.7 NNE 15 17 8 9 1018.0 1017.9 0.0
21/10:30pm 28.3 23.1 0.1 16 13.3 NNE 17 17 9 9 1017.9 1017.8 0.0
21/10:00pm 27.4 23.2 -0.6 16 13.0 N 11 13 6 7 1017.8 1017.7 0.0
21/09:30pm 28.7 24.2 -0.5 15 13.7 NNE 13 17 7 9 1017.5 1017.4 0.0
21/09:00pm 29.8 24.9 -0.5 14 14.3 NNE 15 17 8 9 1017.3 1017.2 0.0
21/08:30pm 30.2 25.2 -1.2 13 14.7 NNE 15 15 8 8 1017.2 1017.1 0.0
21/08:00pm 31.7 27.1 -1.2 12 15.6 NNE 13 15 7 8 1017.0 1016.9 0.0
21/07:30pm 33.6 28.8 0.3 12 16.4 N 15 15 8 8 1016.6 1016.5 0.0
21/07:00pm 35.4 30.6 0.5 11 17.4 N 15 19 8 10 1016.3 1016.2 0.0
21/06:30pm 36.7 31.5 0.1 10 18.3 NNE 17 24 9 13 1016.0 1015.9 0.0
21/06:00pm 37.2 32.1 0.5 10 18.5 NNE 17 28 9 15 1015.8 1015.7 0.0
21/05:30pm 37.6 32.3 -0.6 9 19.0 NNE 17 26 9 14 1015.8 1015.7 0.0
21/05:00pm 37.9 33.6 1.0 10 18.9 NE 13 22 7 12 1015.8 1015.7 0.0
21/04:30pm 38.6 33.3 1.6 10 19.2 NNE 19 28 10 15 1015.8 1015.7 0.0
21/04:00pm 38.3 32.7 1.3 10 19.1 N 20 28 11 15 1015.8 1015.7 0.0
21/03:30pm 38.1 31.7 1.2 10 18.9 N 24 37 13 20 1016.0 1015.9 0.0
21/03:00pm 38.0 33.0 1.1 10 18.9 N 17 28 9 15 1016.3 1016.2 0.0
21/02:30pm 38.8 34.6 1.7 10 19.3 NNE 13 28 7 15 1016.6 1016.5 0.0
21/02:00pm 37.1 32.3 0.4 10 18.5 ENE 15 32 8 17 1017.4 1017.3 0.0
21/01:30pm 38.2 32.2 1.3 10 19.0 N 22 28 12 15 1017.8 1017.7 0.0
21/01:00pm 37.9 32.5 1.0 10 18.9 NNE 19 35 10 19 1018.4 1018.3 0.0
21/12:30pm 37.2 32.1 0.5 10 18.5 N 17 30 9 16 1018.8 1018.7 0.0
21/12:00pm 37.5 33.4 2.1 11 18.3 NNE 13 30 7 16 1019.3 1019.2 0.0
21/11:30am 36.1 31.8 3.3 13 17.2 N 15 24 8 13 1019.7 1019.6 0.0
21/11:00am 35.8 31.8 3.1 13 17.1 NNE 13 19 7 10 1019.9 1019.8 0.0
21/10:30am 34.7 30.8 3.3 14 16.3 N 13 22 7 12 1020.1 1020.0 0.0
21/10:00am 33.8 30.9 2.6 14 16.0 N 7 11 4 6 1020.2 1020.1 0.0
21/09:30am 32.1 28.8 2.2 15 15.0 NNE 9 13 5 7 1020.2 1020.1 0.0
21/09:00am 30.5 26.3 1.9 16 14.1 NE 13 17 7 9 1020.0 1019.9 0.0
21/08:30am 28.4 24.9 1.0 17 13.1 ENE 9 13 5 7 1019.9 1019.8 0.0
21/08:00am 25.4 22.2 -0.6 18 11.9 ENE 6 9 3 5 1019.5 1019.4 0.0
21/07:30am 23.1 19.9 -0.4 21 10.6 NNE 6 7 3 4 1019.1 1019.0 0.0
21/07:00am 19.3 14.9 -2.3 23 9.1 ENE 11 13 6 7 1018.7 1018.6 0.0
21/06:30am 18.5 14.5 -2.4 24 8.7 ENE 9 11 5 6 1018.2 1018.1 0.0
21/06:00am 19.4 16.0 -1.7 24 8.9 ENE 6 9 3 5 1017.8 1017.7 0.0
21/05:30am 19.5 16.0 -1.6 24 9.0 ENE 7 9 4 5 1017.6 1017.5 0.0
21/05:00am 20.2 16.9 -1.6 23 9.4 E 6 7 3 4 1017.4 1017.3 0.0
21/04:30am 21.2 18.4 -0.1 24 9.5 ESE 4 11 2 6 1017.4 1017.3 0.0
21/04:00am 22.3 18.6 0.2 23 10.0 NE 9 9 5 5 1017.2 1017.1 0.0
21/03:30am 21.8 17.9 -1.5 21 10.1 ENE 9 13 5 7 1017.4 1017.3 0.0
21/03:00am 21.3 17.0 -1.9 21 10.0 E 11 15 6 8 1017.5 1017.4 0.0
21/02:30am 22.2 18.9 -1.1 21 10.3 NE 6 22 3 12 1017.6 1017.5 0.0
21/02:00am 23.3 20.4 -0.9 20 10.8 N 4 7 2 4 1017.8 1017.7 0.0
21/01:30am 22.9 19.0 -1.2 20 10.6 N 9 11 5 6 1018.2 1018.1 0.0
21/01:00am 23.7 21.1 -2.0 18 11.3 NE 2 7 1 4 1018.5 1018.4 0.0
21/12:30am 22.8 19.0 -3.5 17 11.1 ENE 7 11 4 6 1018.6 1018.5 0.0
21/12:00am 24.2 20.3 -1.6 18 11.4 E 9 11 5 6 1018.8 1018.7 0.0
 
Date/Time
CDT
Temp
°C
App
Temp
°C
Dew
Point
Rel
Hum
%
Delta-T
°C
Wind Press
QNH
hPa
Press
MSL
hPa
Rain
since 9 am
mm
Dir
 
Spd
km/h
Gust
km/h
Spd
kts
Gust
kts
20/11:30pm 24.6 20.5 -2.9 16 11.9 E 9 13 5 7 1018.9 1018.8 0.0
20/11:00pm 26.1 23.5 -1.7 16 12.5 NE 2 6 1 3 1018.9 1018.8 0.0
20/10:30pm 27.0 24.1 -0.9 16 12.8 NE 4 7 2 4 1018.8 1018.7 0.0
20/10:00pm 27.7 24.1 -2.2 14 13.5 NE 7 7 4 4 1018.8 1018.7 0.0
20/09:30pm 28.8 25.4 -2.3 13 14.1 ENE 6 7 3 4 1018.6 1018.5 0.0
20/09:00pm 29.2 25.2 -2.0 13 14.3 ENE 9 13 5 7 1018.3 1018.2 0.0
20/08:30pm 30.3 26.3 -2.2 12 15.0 NE 9 11 5 6 1018.0 1017.9 0.0
20/08:00pm 30.6 26.1 -3.2 11 15.4 ENE 11 13 6 7 1017.6 1017.5 0.0
20/07:30pm 32.5 28.0 -3.0 10 16.4 E 11 13 6 7 1017.1 1017.0 0.0
20/07:00pm 34.7 30.3 -2.8 9 17.7 E 11 15 6 8 1016.8 1016.7 0.0
20/06:30pm 35.8 30.7 -2.0 9 18.2 ESE 15 22 8 12 1016.5 1016.4 0.0
20/06:00pm 36.2 32.8 -1.7 9 18.4 SSE 6 13 3 7 1016.4 1016.3 0.0
20/05:30pm 36.5 31.9 -1.4 9 18.5 ENE 13 19 7 10 1016.5 1016.4 0.0
20/05:00pm 36.8 32.2 -1.2 9 18.6 N 13 19 7 10 1016.6 1016.5 0.0
20/04:30pm 36.3 31.2 -1.6 9 18.4 S 15 20 8 11 1016.7 1016.6 0.0
20/04:00pm 37.2 32.6 -0.9 9 18.8 E 13 22 7 12 1017.1 1017.0 0.0
20/03:30pm 36.5 33.0 -1.4 9 18.5 SE 7 17 4 9 1017.5 1017.4 0.0
20/03:00pm 37.7 31.8 -2.2 8 19.4 ENE 19 30 10 16 1017.8 1017.7 0.0
20/02:30pm 36.6 31.7 -3.0 8 18.8 NE 13 20 7 11 1018.3 1018.2 0.0
20/02:00pm 36.1 32.2 -1.7 9 18.3 SE 9 17 5 9 1018.8 1018.7 0.0
20/01:30pm 37.0 32.0 -1.1 9 18.7 NE 15 28 8 15 1019.3 1019.2 0.0
20/01:00pm 36.0 31.9 -0.4 10 18.0 N 11 20 6 11 1019.8 1019.7 0.0
20/12:30pm 35.5 30.9 -0.8 10 17.7 N 13 24 7 13 1020.3 1020.2 0.0

Other Formats:

Comma delimited format used in spreadsheet applications
http://www.bom.gov.au/fwo/IDS60801/IDS60801.95481.axf

JavaScript Object Notation format (JSON) in row-major order
http://www.bom.gov.au/fwo/IDS60801/IDS60801.95481.json